createdAt,value
2019-01-14T00:01:32.417Z,96808.53
2019-01-14T00:04:01.553Z,96797.75
2019-01-14T00:06:30.638Z,96802.06
2019-01-14T00:09:00.009Z,96808.20
2019-01-14T00:11:29.099Z,96826.03
2019-01-14T00:13:58.315Z,96841.59
2019-01-14T00:16:27.403Z,96824.25
2019-01-14T00:18:56.534Z,96866.09
2019-01-14T00:21:25.667Z,96857.81
2019-01-14T00:23:54.757Z,96883.37
2019-01-14T00:26:23.881Z,96890.75
2019-01-14T00:28:52.969Z,96889.43
2019-01-14T00:31:22.111Z,96899.41
2019-01-14T00:33:52.296Z,96902.08
2019-01-14T00:36:21.445Z,96900.94
2019-01-14T00:38:50.540Z,96899.63
2019-01-14T00:41:19.666Z,96894.97
2019-01-14T00:43:48.760Z,96916.46
2019-01-14T00:46:17.894Z,96920.43
2019-01-14T00:48:47.012Z,96930.88
2019-01-14T00:51:16.269Z,96930.02
2019-01-14T00:53:45.318Z,96951.86
2019-01-14T00:56:14.527Z,96953.56
2019-01-14T00:58:43.661Z,96958.03
2019-01-14T01:01:12.814Z,96954.63
2019-01-14T01:03:41.979Z,96956.12
2019-01-14T01:06:11.199Z,96964.65
2019-01-14T01:08:40.554Z,96970.91
2019-01-14T01:11:09.680Z,96980.64
2019-01-14T01:13:38.782Z,96982.13
2019-01-14T01:16:07.912Z,96991.48
2019-01-14T01:18:37.048Z,97001.42
2019-01-14T01:21:06.201Z,97004.07
2019-01-14T01:23:35.830Z,97010.48
2019-01-14T01:26:04.969Z,97008.36
2019-01-14T01:28:34.080Z,97006.73
2019-01-14T01:31:03.207Z,97009.69
2019-01-14T01:33:32.291Z,97009.81
2019-01-14T01:36:01.420Z,97016.17
2019-01-14T01:38:30.432Z,97014.48
2019-01-14T01:40:59.550Z,97019.59
2019-01-14T01:43:28.683Z,97024.61
2019-01-14T01:45:57.800Z,97036.66
2019-01-14T01:48:26.894Z,97038.10
2019-01-14T01:50:56.080Z,97047.66
2019-01-14T01:53:25.157Z,97047.81
2019-01-14T01:55:54.350Z,97051.67
2019-01-14T01:58:24.148Z,97060.63
2019-01-14T02:00:53.231Z,97066.55
2019-01-14T02:03:22.352Z,97081.63
2019-01-14T02:05:51.462Z,97076.61
2019-01-14T02:08:20.619Z,97073.81
2019-01-14T02:10:49.734Z,97090.78
2019-01-14T02:13:18.855Z,97083.22
2019-01-14T02:15:47.982Z,97097.28
2019-01-14T02:18:17.073Z,97100.91
2019-01-14T02:20:46.220Z,97104.91
2019-01-14T02:23:15.332Z,97098.25
2019-01-14T02:25:44.413Z,97104.00
2019-01-14T02:28:13.632Z,97119.10
2019-01-14T02:30:42.723Z,97086.75
2019-01-14T02:33:11.861Z,97110.84
2019-01-14T02:35:40.905Z,97105.41
2019-01-14T02:38:10.037Z,97109.34
2019-01-14T02:40:39.178Z,97116.25
2019-01-14T02:43:08.302Z,97130.84
2019-01-14T02:45:37.727Z,97128.58
2019-01-14T02:48:06.848Z,97145.86
2019-01-14T02:50:35.937Z,97150.22
2019-01-14T02:53:05.066Z,97178.80
2019-01-14T02:55:34.160Z,97180.66
2019-01-14T02:58:03.299Z,97189.37
2019-01-14T03:00:32.428Z,97189.70
2019-01-14T03:03:01.551Z,97239.42
2019-01-14T03:05:30.682Z,97224.83
2019-01-14T03:07:59.778Z,97201.19
2019-01-14T03:10:28.931Z,97235.25
2019-01-14T03:12:58.064Z,97228.64
2019-01-14T03:15:27.170Z,97210.09
2019-01-14T03:17:56.265Z,97220.59
2019-01-14T03:20:25.382Z,97205.72
2019-01-14T03:22:54.495Z,97230.47
2019-01-14T03:25:23.644Z,97226.27
2019-01-14T03:27:52.749Z,97222.61
2019-01-14T03:30:21.850Z,97255.06
2019-01-14T03:32:50.958Z,97239.70
2019-01-14T03:35:20.476Z,97242.17
2019-01-14T03:37:49.562Z,97243.92
2019-01-14T03:40:19.205Z,97278.17
2019-01-14T03:42:48.294Z,97264.70
2019-01-14T03:45:17.663Z,97261.82
2019-01-14T03:47:46.747Z,97261.30
2019-01-14T03:50:19.246Z,97285.23
2019-01-14T03:52:48.366Z,97283.14
2019-01-14T03:55:17.685Z,97284.81
2019-01-14T03:57:46.771Z,97291.06
2019-01-14T04:00:17.100Z,97290.58
2019-01-14T04:02:46.527Z,97302.17
2019-01-14T04:05:15.759Z,97310.70
2019-01-14T04:07:44.956Z,97313.56
2019-01-14T04:10:15.730Z,97326.83
2019-01-14T04:12:45.122Z,97329.88
2019-01-14T04:15:16.383Z,97331.42
2019-01-14T04:17:45.861Z,97344.28
2019-01-14T04:20:16.282Z,97336.98
2019-01-14T04:22:45.705Z,97341.84
2019-01-14T04:25:14.855Z,97346.48
2019-01-14T04:27:43.932Z,97339.47
2019-01-14T04:30:15.942Z,97345.38
2019-01-14T04:32:45.022Z,97357.03
2019-01-14T04:35:15.941Z,97356.97
2019-01-14T04:37:45.152Z,97368.03
2019-01-14T04:40:14.856Z,97358.51
2019-01-14T04:42:44.230Z,97362.95
2019-01-14T04:45:13.669Z,97365.86
2019-01-14T04:47:42.777Z,97376.23
2019-01-14T04:50:15.171Z,97367.80
2019-01-14T04:52:44.273Z,97372.81
2019-01-14T04:55:13.458Z,97373.38
2019-01-14T04:57:42.538Z,97378.73
2019-01-14T05:00:22.902Z,97381.70
2019-01-14T05:02:52.089Z,97374.69
2019-01-14T05:05:21.259Z,97387.41
2019-01-14T05:07:50.461Z,97403.08
2019-01-14T05:10:19.955Z,97406.92
2019-01-14T05:12:49.348Z,97415.42
2019-01-14T05:15:18.479Z,97410.87
2019-01-14T05:17:47.602Z,97422.39
2019-01-14T05:20:34.839Z,97418.08
2019-01-14T05:23:04.161Z,97414.17
2019-01-14T05:25:33.716Z,97417.81
2019-01-14T05:28:02.809Z,97418.85
2019-01-14T05:30:32.267Z,97425.75
2019-01-14T05:33:01.354Z,97430.24
2019-01-14T05:35:30.482Z,97429.80
2019-01-14T05:37:59.583Z,97436.17
2019-01-14T05:40:28.738Z,97445.38
2019-01-14T05:42:57.849Z,97437.17
2019-01-14T05:45:26.941Z,97429.69
2019-01-14T05:47:56.058Z,97442.03
2019-01-14T05:50:25.199Z,97446.78
2019-01-14T05:52:54.608Z,97445.64
2019-01-14T05:55:23.724Z,97448.98
2019-01-14T05:57:53.048Z,97462.79
2019-01-14T06:00:36.857Z,97450.91
2019-01-14T06:03:06.528Z,97450.92
2019-01-14T06:05:37.396Z,97447.37
2019-01-14T06:08:06.552Z,97455.02
2019-01-14T06:10:35.635Z,97474.19
2019-01-14T06:13:04.766Z,97467.11
2019-01-14T06:15:33.864Z,97468.34
2019-01-14T06:18:02.990Z,97467.42
2019-01-14T06:20:32.592Z,97466.00
2019-01-14T06:23:02.643Z,97484.83
2019-01-14T06:25:31.809Z,97468.73
2019-01-14T06:28:00.960Z,97481.71
2019-01-14T06:30:30.894Z,97476.86
2019-01-14T06:33:00.118Z,97494.28
2019-01-14T06:35:29.723Z,97491.30
2019-01-14T06:37:58.943Z,97494.45
2019-01-14T06:40:28.043Z,97489.66
2019-01-14T06:42:58.169Z,97495.45
2019-01-14T06:45:27.276Z,97500.70
2019-01-14T06:47:56.425Z,97508.03
2019-01-14T06:50:25.524Z,97509.34
2019-01-14T06:52:54.684Z,97506.67
2019-01-14T06:55:24.001Z,97509.27
2019-01-14T06:57:53.181Z,97521.44
2019-01-14T07:00:24.612Z,97522.95
2019-01-14T07:02:54.408Z,97530.06
2019-01-14T07:05:23.965Z,97526.11
2019-01-14T07:07:59.456Z,97534.98
2019-01-14T07:10:26.825Z,97546.20
2019-01-14T07:12:56.053Z,97550.77
2019-01-14T07:15:25.213Z,97550.91
2019-01-14T07:17:54.336Z,97552.90
2019-01-14T07:20:23.639Z,97562.39
2019-01-14T07:22:52.755Z,97549.20
2019-01-14T07:25:21.861Z,97561.07
2019-01-14T07:27:50.994Z,97571.40
2019-01-14T07:30:25.310Z,97583.34
2019-01-14T07:32:54.532Z,97569.18
2019-01-14T07:35:23.619Z,97575.06
2019-01-14T07:37:52.865Z,97581.76
2019-01-14T07:40:22.276Z,97587.30
2019-01-14T07:42:51.409Z,97585.14
2019-01-14T07:45:20.723Z,97587.30
2019-01-14T07:47:49.946Z,97589.22
2019-01-14T07:50:19.676Z,97588.84
2019-01-14T07:52:49.515Z,97596.27
2019-01-14T07:55:18.695Z,97588.12
2019-01-14T07:57:47.981Z,97597.36
2019-01-14T08:00:19.923Z,97598.08
2019-01-14T08:02:50.479Z,97603.70
2019-01-14T08:05:21.227Z,97601.77
2019-01-14T08:07:51.746Z,97626.14
2019-01-14T08:10:21.931Z,97624.08
2019-01-14T08:12:51.088Z,97635.12
2019-01-14T08:15:22.130Z,97641.69
2019-01-14T08:17:51.350Z,97655.27
2019-01-14T08:20:20.497Z,97651.41
2019-01-14T08:22:49.626Z,97650.34
2019-01-14T08:25:18.725Z,97653.08
2019-01-14T08:27:47.901Z,97667.95
2019-01-14T08:30:24.051Z,97660.41
2019-01-14T08:32:53.163Z,97671.09
2019-01-14T08:35:22.368Z,97668.94
2019-01-14T08:37:51.554Z,97675.03
2019-01-14T08:40:20.655Z,97673.23
2019-01-14T08:42:50.034Z,97684.78
2019-01-14T08:45:19.227Z,97685.00
2019-01-14T08:47:48.315Z,97681.66
2019-01-14T08:50:21.483Z,97676.13
2019-01-14T08:52:51.427Z,97679.47
2019-01-14T08:55:20.652Z,97686.91
2019-01-14T08:57:54.448Z,97680.57
2019-01-14T09:00:22.938Z,97681.63
2019-01-14T09:02:52.218Z,97683.91
2019-01-14T09:05:21.423Z,97686.42
2019-01-14T09:07:50.601Z,97688.59
2019-01-14T09:10:23.534Z,97682.34
2019-01-14T09:12:52.766Z,97686.20
2019-01-14T09:15:22.036Z,97695.89
2019-01-14T09:17:51.158Z,97702.39
2019-01-14T09:20:22.279Z,97703.84
2019-01-14T09:22:51.596Z,97705.39
2019-01-14T09:25:20.713Z,97706.00
2019-01-14T09:27:49.846Z,97707.80
2019-01-14T09:30:36.972Z,97709.96
2019-01-14T09:33:06.125Z,97709.48
2019-01-14T09:35:35.285Z,97711.88
2019-01-14T09:38:04.629Z,97721.83
2019-01-14T09:40:33.773Z,97732.16
2019-01-14T09:43:03.024Z,97755.95
2019-01-14T09:45:32.117Z,97737.60
2019-01-14T09:48:01.288Z,97763.86
2019-01-14T09:50:30.383Z,97780.34
2019-01-14T09:52:59.476Z,97800.23
2019-01-14T09:55:28.697Z,97790.60
2019-01-14T09:57:57.831Z,97797.13
2019-01-14T10:00:26.925Z,97812.68
2019-01-14T10:02:56.061Z,97806.63
2019-01-14T10:05:25.212Z,97799.52
2019-01-14T10:07:54.352Z,97794.62
2019-01-14T10:10:23.470Z,97784.92
2019-01-14T10:12:52.572Z,97783.18
2019-01-14T10:15:23.974Z,97780.25
2019-01-14T10:17:59.390Z,97783.74
2019-01-14T10:20:28.778Z,97789.88
2019-01-14T10:22:58.579Z,97795.04
2019-01-14T10:25:27.731Z,97795.88
2019-01-14T10:27:56.868Z,97800.08
2019-01-14T10:30:25.958Z,97811.23
2019-01-14T10:32:55.087Z,97792.64
2019-01-14T10:35:24.198Z,97800.66
2019-01-14T10:37:53.311Z,97804.02
2019-01-14T10:40:22.431Z,97816.73
2019-01-14T10:42:51.579Z,97809.78
2019-01-14T10:45:22.336Z,97810.02
2019-01-14T10:47:51.831Z,97808.34
2019-01-14T10:50:21.239Z,97830.53
2019-01-14T10:52:50.379Z,97817.47
2019-01-14T10:55:19.536Z,97839.99
2019-01-14T10:57:48.680Z,97810.85
2019-01-14T11:00:23.135Z,97819.02
2019-01-14T11:02:52.786Z,97818.66
2019-01-14T11:05:24.611Z,97825.75
2019-01-14T11:07:53.733Z,97794.62
2019-01-14T11:10:22.930Z,97818.93
2019-01-14T11:12:52.146Z,97823.05
2019-01-14T11:15:21.456Z,97829.51
2019-01-14T11:17:50.584Z,97828.47
2019-01-14T11:20:24.860Z,97810.58
2019-01-14T11:22:54.191Z,97822.94
2019-01-14T11:25:23.356Z,97831.73
2019-01-14T11:27:52.455Z,97833.23
2019-01-14T11:30:24.209Z,97829.21
2019-01-14T11:32:53.308Z,97823.11
2019-01-14T11:35:22.400Z,97830.83
2019-01-14T11:37:51.536Z,97823.27
2019-01-14T11:40:23.025Z,97820.87
2019-01-14T11:42:52.156Z,97826.39
2019-01-14T11:45:21.238Z,97828.55
2019-01-14T11:47:50.332Z,97836.97
2019-01-14T11:50:19.463Z,97837.69
2019-01-14T11:52:48.766Z,97853.66
2019-01-14T11:55:17.800Z,97848.86
2019-01-14T11:57:46.987Z,97849.13
2019-01-14T12:00:18.746Z,97858.96
2019-01-14T12:02:57.944Z,97861.00
2019-01-14T12:05:27.093Z,97856.79
2019-01-14T12:07:56.215Z,97864.36
2019-01-14T12:10:25.327Z,97858.84
2019-01-14T12:12:54.444Z,97862.78
2019-01-14T12:15:25.797Z,97869.84
2019-01-14T12:17:54.885Z,97865.89
2019-01-14T12:20:24.003Z,97880.16
2019-01-14T12:22:53.083Z,97876.80
2019-01-14T12:25:22.222Z,97882.31
2019-01-14T12:27:51.596Z,97880.04
2019-01-14T12:30:28.596Z,97870.66
2019-01-14T12:32:57.739Z,97877.48
2019-01-14T12:35:26.857Z,97863.94
2019-01-14T12:37:56.323Z,97870.41
2019-01-14T12:40:25.423Z,97866.34
2019-01-14T12:42:54.530Z,97875.20
2019-01-14T12:45:24.217Z,97882.76
2019-01-14T12:47:53.576Z,97878.80
2019-01-14T12:50:22.681Z,97901.05
2019-01-14T12:52:51.767Z,97887.98
2019-01-14T12:55:21.374Z,97896.98
2019-01-14T12:57:50.528Z,97901.57
2019-01-14T13:00:21.982Z,97911.76
2019-01-14T13:02:51.512Z,97914.86
2019-01-14T13:05:21.231Z,97924.64
2019-01-14T13:07:50.517Z,97936.69
2019-01-14T13:10:19.606Z,97940.62
2019-01-14T13:12:48.814Z,97938.72
2019-01-14T13:15:20.576Z,97939.72
2019-01-14T13:17:50.031Z,97940.47
2019-01-14T13:20:19.249Z,97942.58
2019-01-14T13:22:48.359Z,97946.11
2019-01-14T13:25:17.587Z,97948.09
2019-01-14T13:27:47.070Z,97960.97
2019-01-14T13:30:24.377Z,97945.91
2019-01-14T13:32:53.813Z,97939.26
2019-01-14T13:35:22.996Z,97942.14
2019-01-14T13:37:52.473Z,97939.22
2019-01-14T13:40:21.596Z,97936.30
2019-01-14T13:42:50.689Z,97945.94
2019-01-14T13:45:20.972Z,97954.46
2019-01-14T13:47:50.533Z,97961.19
2019-01-14T13:50:21.721Z,97994.78
2019-01-14T13:52:50.807Z,98009.17
2019-01-14T13:55:21.743Z,98006.47
2019-01-14T13:57:52.370Z,97985.70
2019-01-14T14:00:23.353Z,97990.22
2019-01-14T14:02:53.016Z,97992.37
2019-01-14T14:05:22.152Z,98009.94
2019-01-14T14:07:51.551Z,98010.85
2019-01-14T14:10:31.388Z,98023.09
2019-01-14T14:13:00.611Z,98014.43
2019-01-14T14:15:29.816Z,98013.95
2019-01-14T14:17:58.988Z,98006.91
2019-01-14T14:20:28.122Z,98015.06
2019-01-14T14:22:57.241Z,98011.27
2019-01-14T14:25:26.416Z,98016.88
2019-01-14T14:27:55.486Z,98026.14
2019-01-14T14:30:27.796Z,98020.92
2019-01-14T14:32:56.919Z,98030.80
2019-01-14T14:35:26.005Z,98035.37
2019-01-14T14:38:00.966Z,98042.80
2019-01-14T14:40:26.061Z,98051.48
2019-01-14T14:42:55.475Z,98048.95
2019-01-14T14:45:24.593Z,98065.22
2019-01-14T14:47:53.675Z,98060.33
2019-01-14T14:50:22.810Z,98067.53
2019-01-14T14:52:51.944Z,98067.44
2019-01-14T14:55:21.142Z,98069.19
2019-01-14T14:57:50.593Z,98052.22
2019-01-14T15:00:21.083Z,98085.06
2019-01-14T15:02:50.194Z,98088.59
2019-01-14T15:05:19.835Z,98102.44
2019-01-14T15:07:48.932Z,98126.94
2019-01-14T15:10:19.891Z,98131.03
2019-01-14T15:12:49.053Z,98132.25
2019-01-14T15:15:20.845Z,98141.00
2019-01-14T15:17:50.020Z,98156.57
2019-01-14T15:20:20.954Z,98148.52
2019-01-14T15:22:49.994Z,98164.28
2019-01-14T15:25:19.121Z,98156.43
2019-01-14T15:27:48.236Z,98153.91
2019-01-14T15:30:23.378Z,98164.70
2019-01-14T15:32:52.487Z,98174.66
2019-01-14T15:35:21.867Z,98182.45
2019-01-14T15:37:50.992Z,98175.95
2019-01-14T15:40:20.289Z,98189.67
2019-01-14T15:42:49.524Z,98190.13
2019-01-14T15:45:19.274Z,98192.56
2019-01-14T15:47:48.471Z,98204.77
2019-01-14T15:50:17.671Z,98219.88
2019-01-14T15:52:46.956Z,98228.80
2019-01-14T15:55:19.020Z,98224.48
2019-01-14T15:57:48.324Z,98223.34
2019-01-14T16:00:18.349Z,98223.83
2019-01-14T16:02:47.779Z,98228.89
2019-01-14T16:05:17.127Z,98227.21
2019-01-14T16:07:46.242Z,98231.69
2019-01-14T16:10:17.508Z,98225.69
2019-01-14T16:12:46.906Z,98237.70
2019-01-14T16:15:16.222Z,98240.26
2019-01-14T16:17:46.467Z,98245.88
2019-01-14T16:20:17.709Z,98244.84
2019-01-14T16:22:47.104Z,98253.48
2019-01-14T16:25:16.253Z,98254.80
2019-01-14T16:27:45.311Z,98255.25
2019-01-14T16:30:16.890Z,98270.75
2019-01-14T16:32:45.972Z,98261.15
2019-01-14T16:35:15.173Z,98261.55
2019-01-14T16:37:44.368Z,98282.03
2019-01-14T16:40:17.895Z,98280.89
2019-01-14T16:42:44.748Z,98287.64
2019-01-14T16:45:16.483Z,98290.66
2019-01-14T16:47:45.579Z,98307.27
2019-01-14T16:50:15.277Z,98290.28
2019-01-14T16:52:44.374Z,98296.66
2019-01-14T16:55:15.156Z,98295.07
2019-01-14T16:57:44.350Z,98307.73
2019-01-14T17:00:16.511Z,98301.43
2019-01-14T17:02:45.660Z,98294.13
2019-01-14T17:05:15.256Z,98304.70
2019-01-14T17:07:44.458Z,98312.89
2019-01-14T17:10:14.782Z,98321.64
2019-01-14T17:12:43.981Z,98315.16
2019-01-14T17:15:13.717Z,98317.13
2019-01-14T17:17:42.964Z,98320.12
2019-01-14T17:20:15.473Z,98330.47
2019-01-14T17:22:44.903Z,98347.17
2019-01-14T17:25:14.647Z,98338.82
2019-01-14T17:27:45.218Z,98348.77
2019-01-14T17:30:15.321Z,98351.84
2019-01-14T17:32:44.450Z,98356.75
2019-01-14T17:35:13.858Z,98358.53
2019-01-14T17:37:43.292Z,98359.94
2019-01-14T17:40:17.424Z,98361.41
2019-01-14T17:42:46.712Z,98356.72
2019-01-14T17:45:15.886Z,98363.69
2019-01-14T17:47:45.245Z,98363.09
2019-01-14T17:50:16.731Z,98370.27
2019-01-14T17:52:45.833Z,98369.51
2019-01-14T17:55:15.281Z,98367.57
2019-01-14T17:57:44.387Z,98372.80
2019-01-14T18:00:17.079Z,98375.05
2019-01-14T18:02:46.277Z,98378.71
2019-01-14T18:05:15.407Z,98382.56
2019-01-14T18:07:44.519Z,98388.45
2019-01-14T18:10:15.230Z,98386.75
2019-01-14T18:12:44.317Z,98394.91
2019-01-14T18:15:23.835Z,98396.42
2019-01-14T18:17:52.916Z,98396.42
2019-01-14T18:20:22.030Z,98403.17
2019-01-14T18:22:51.594Z,98402.43
2019-01-14T18:25:20.667Z,98406.78
2019-01-14T18:27:49.748Z,98404.21
2019-01-14T18:30:20.662Z,98415.55
2019-01-14T18:32:49.810Z,98417.86
2019-01-14T18:35:18.998Z,98423.59
2019-01-14T18:37:48.360Z,98420.87
2019-01-14T18:40:19.002Z,98424.06
2019-01-14T18:42:48.581Z,98428.19
2019-01-14T18:45:19.825Z,98429.59
2019-01-14T18:47:49.434Z,98436.08
2019-01-14T18:50:20.823Z,98430.91
2019-01-14T18:52:50.255Z,98430.63
2019-01-14T18:55:19.567Z,98442.41
2019-01-14T18:57:49.038Z,98444.53
2019-01-14T19:00:20.432Z,98447.57
2019-01-14T19:02:49.847Z,98453.08
2019-01-14T19:05:20.200Z,98458.37
2019-01-14T19:07:51.319Z,98458.66
2019-01-14T19:10:20.542Z,98459.13
2019-01-14T19:12:49.667Z,98461.37
2019-01-14T19:15:20.758Z,98460.63
2019-01-14T19:17:50.891Z,98468.70
2019-01-14T19:20:25.594Z,98472.17
2019-01-14T19:22:55.717Z,98462.07
2019-01-14T19:25:26.991Z,98468.61
2019-01-14T19:27:56.310Z,98473.25
2019-01-14T19:30:25.948Z,98481.23
2019-01-14T19:32:55.803Z,98480.30
2019-01-14T19:35:25.248Z,98485.36
2019-01-14T19:37:54.437Z,98480.38
2019-01-14T19:40:23.777Z,98489.77
2019-01-14T19:42:53.550Z,98489.97
2019-01-14T19:45:23.659Z,98488.37
2019-01-14T19:47:53.304Z,98497.20
2019-01-14T19:50:24.953Z,98491.05
2019-01-14T19:52:56.241Z,98494.80
2019-01-14T19:55:26.596Z,98498.66
2019-01-14T19:57:55.833Z,98506.83
2019-01-14T20:00:28.290Z,98505.88
2019-01-14T20:02:57.743Z,98516.07
2019-01-14T20:05:26.993Z,98512.40
2019-01-14T20:07:56.570Z,98523.05
2019-01-14T20:10:25.723Z,98514.09
2019-01-14T20:12:55.854Z,98510.45
2019-01-14T20:15:25.333Z,98520.22
2019-01-14T20:17:54.790Z,98519.48
2019-01-14T20:20:25.021Z,98518.62
2019-01-14T20:22:54.480Z,98519.35
2019-01-14T20:25:23.567Z,98521.27
2019-01-14T20:27:52.787Z,98518.30
2019-01-14T20:30:23.753Z,98509.42
2019-01-14T20:32:53.260Z,98516.08
2019-01-14T20:35:22.374Z,98516.52
2019-01-14T20:37:51.780Z,98516.23
2019-01-14T20:40:29.101Z,98520.95
2019-01-14T20:42:58.506Z,98524.36
2019-01-14T20:45:28.193Z,98531.55
2019-01-14T20:47:58.321Z,98529.84
2019-01-14T20:50:28.405Z,98529.11
2019-01-14T20:52:57.533Z,98526.30
2019-01-14T20:55:26.676Z,98535.70
2019-01-14T20:57:56.427Z,98543.02
2019-01-14T21:00:25.970Z,98542.03
2019-01-14T21:02:55.192Z,98534.05
2019-01-14T21:05:25.575Z,98539.69
2019-01-14T21:07:55.534Z,98537.73
2019-01-14T21:10:24.881Z,98533.87
2019-01-14T21:12:56.549Z,98522.89
2019-01-14T21:15:25.834Z,98514.72
2019-01-14T21:17:55.052Z,98521.86
2019-01-14T21:20:25.653Z,98521.67
2019-01-14T21:22:55.873Z,98525.94
2019-01-14T21:25:25.109Z,98534.67
2019-01-14T21:27:54.306Z,98533.17
2019-01-14T21:30:25.716Z,98540.52
2019-01-14T21:32:54.932Z,98533.56
2019-01-14T21:35:24.521Z,98542.89
2019-01-14T21:37:55.798Z,98545.91
2019-01-14T21:40:25.022Z,98532.24
2019-01-14T21:42:54.338Z,98534.91
2019-01-14T21:45:23.704Z,98536.79
2019-01-14T21:47:52.834Z,98533.41
2019-01-14T21:50:22.070Z,98536.70
2019-01-14T21:52:51.281Z,98535.38
2019-01-14T21:55:22.333Z,98540.30
2019-01-14T21:57:51.457Z,98527.05
2019-01-14T22:00:22.467Z,98539.73
2019-01-14T22:02:51.597Z,98543.97
2019-01-14T22:05:20.727Z,98544.81
2019-01-14T22:07:49.961Z,98551.86
2019-01-14T22:10:21.377Z,98546.19
2019-01-14T22:12:50.505Z,98546.09
2019-01-14T22:15:19.593Z,98542.62
2019-01-14T22:17:48.790Z,98552.70
2019-01-14T22:20:20.538Z,98554.87
2019-01-14T22:22:49.710Z,98558.72
2019-01-14T22:25:18.845Z,98559.29
2019-01-14T22:27:48.010Z,98567.84
2019-01-14T22:30:19.627Z,98552.23
2019-01-14T22:32:48.931Z,98558.81
2019-01-14T22:35:18.042Z,98557.69
2019-01-14T22:37:47.558Z,98554.49
2019-01-14T22:40:16.860Z,98562.02
2019-01-14T22:42:45.970Z,98556.00
2019-01-14T22:45:15.357Z,98563.80
2019-01-14T22:47:44.467Z,98565.20
2019-01-14T22:50:15.282Z,98563.14
2019-01-14T22:52:44.450Z,98556.66
2019-01-14T22:55:13.798Z,98553.93
2019-01-14T22:57:42.945Z,98557.22
2019-01-14T23:00:27.748Z,98556.56
2019-01-14T23:03:00.200Z,98549.80
2019-01-14T23:05:29.303Z,98560.51
2019-01-14T23:07:58.344Z,98559.66
2019-01-14T23:10:27.477Z,98575.83
2019-01-14T23:12:56.640Z,98559.38
2019-01-14T23:15:25.742Z,98560.88
2019-01-14T23:17:54.871Z,98559.66
2019-01-14T23:20:24.031Z,98557.50
2019-01-14T23:22:53.458Z,98563.14
2019-01-14T23:25:22.599Z,98560.51
2019-01-14T23:27:51.721Z,98549.48
2019-01-14T23:30:20.860Z,98555.63
2019-01-14T23:32:49.992Z,98549.77
2019-01-14T23:35:19.116Z,98554.69
2019-01-14T23:37:48.254Z,98553.42
2019-01-14T23:40:17.344Z,98556.91
2019-01-14T23:42:46.533Z,98544.31
2019-01-14T23:45:15.638Z,98552.48
2019-01-14T23:47:44.769Z,98570.14
2019-01-14T23:50:15.331Z,98570.24
2019-01-14T23:52:44.445Z,98562.53
2019-01-14T23:55:13.584Z,98576.91
2019-01-14T23:57:43.060Z,98574.38
